Time;durP1;ratioP1;P1;durP2;ratioP2;P2;SDS_P1;SDS_P2;PMS_P1;PMS_P2;Temp;Humidity;BMP_temperature;BMP_pressure;BME280_temperature;BME280_humidity;BME280_pressure;Samples;Min_cycle;Max_cycle;Signal;HPM_P1;HPM_P2
2021/05/30 00:01:06;;;;;;;13.93;11.77;;;;;;;;;;5093236;28;20226;-74
2021/05/30 00:03:32;;;;;;;15.20;12.03;;;;;;;;;;5094141;28;20290;-74
2021/05/30 00:05:59;;;;;;;17.33;12.63;;;;;;;;;;5093095;28;20281;-74
2021/05/30 00:08:27;;;;;;;16.13;12.50;;;;;;;;;;5076545;28;20289;-74
2021/05/30 00:10:54;;;;;;;14.47;12.57;;;;;;;;;;5093490;28;20329;-74
2021/05/30 00:13:21;;;;;;;16.97;13.33;;;;;;;;;;5093839;28;20310;-74
2021/05/30 00:15:48;;;;;;;15.90;13.07;;;;;;;;;;5093902;28;20281;-74
2021/05/30 00:18:15;;;;;;;15.50;13.80;;;;;;;;;;5093575;28;20666;-74
2021/05/30 00:20:42;;;;;;;17.63;13.27;;;;;;;;;;5093243;28;20615;-74
2021/05/30 00:23:09;;;;;;;14.93;12.87;;;;;;;;;;5093589;28;20237;-74
2021/05/30 00:25:36;;;;;;;15.60;13.47;;;;;;;;;;5093826;28;20289;-74
2021/05/30 00:28:03;;;;;;;17.03;13.23;;;;;;;;;;5093211;28;20831;-74
2021/05/30 00:30:30;;;;;;;15.17;13.37;;;;;;;;;;5092821;28;20297;-74
2021/05/30 00:32:57;;;;;;;14.83;13.27;;;;;;;;;;5093533;28;20283;-74
2021/05/30 00:35:24;;;;;;;17.50;13.53;;;;;;;;;;5093537;28;20286;-74
2021/05/30 00:37:50;;;;;;;15.93;12.60;;;;;;;;;;5093324;28;20351;-74
2021/05/30 00:40:17;;;;;;;16.30;12.80;;;;;;;;;;5092963;28;20259;-74
2021/05/30 00:42:45;;;;;;;15.70;12.87;;;;;;;;;;5093145;28;20278;-74
2021/05/30 00:45:13;;;;;;;16.10;13.03;;;;;;;;;;5093456;28;20233;-74
2021/05/30 00:47:40;;;;;;;16.03;12.27;;;;;;;;;;5092825;28;20278;-74
2021/05/30 00:50:07;;;;;;;16.77;12.50;;;;;;;;;;5074877;28;20203;-74
2021/05/30 00:52:34;;;;;;;14.27;12.13;;;;;;;;;;5092372;28;20254;-74
2021/05/30 00:55:02;;;;;;;16.33;12.73;;;;;;;;;;5093000;28;20347;-74
2021/05/30 00:57:29;;;;;;;14.77;12.67;;;;;;;;;;5092473;28;20202;-74
2021/05/30 00:59:56;;;;;;;15.47;12.77;;;;;;;;;;5093088;28;20313;-74
2021/05/30 01:02:23;;;;;;;15.47;12.57;;;;;;;;;;5091771;28;20226;-74
2021/05/30 01:04:50;;;;;;;16.83;13.03;;;;;;;;;;5092625;28;20714;-74
2021/05/30 01:07:18;;;;;;;16.50;13.33;;;;;;;;;;5092420;28;20285;-74
2021/05/30 01:09:46;;;;;;;15.00;13.03;;;;;;;;;;5092536;28;20202;-75
2021/05/30 01:12:14;;;;;;;15.87;13.30;;;;;;;;;;5092795;28;20630;-74
2021/05/30 01:14:41;;;;;;;16.10;12.83;;;;;;;;;;5092232;28;20620;-74
2021/05/30 01:17:10;;;;;;;15.30;12.83;;;;;;;;;;5091814;28;20780;-74
2021/05/30 01:19:37;;;;;;;16.30;12.60;;;;;;;;;;5091493;28;20669;-73
2021/05/30 01:22:07;;;;;;;14.03;12.53;;;;;;;;;;5092090;28;20201;-74
2021/05/30 01:24:36;;;;;;;15.90;12.70;;;;;;;;;;5091772;28;20208;-74
2021/05/30 01:27:02;;;;;;;14.90;13.13;;;;;;;;;;5092682;28;20347;-74
2021/05/30 01:29:29;;;;;;;15.60;12.60;;;;;;;;;;5092734;28;20198;-74
2021/05/30 01:31:56;;;;;;;16.47;12.87;;;;;;;;;;5092342;28;20811;-74
2021/05/30 01:34:22;;;;;;;15.23;12.73;;;;;;;;;;5091635;28;20580;-74
2021/05/30 01:36:49;;;;;;;16.47;13.30;;;;;;;;;;5091964;28;20662;-74
2021/05/30 01:39:16;;;;;;;17.73;12.80;;;;;;;;;;5091964;28;20338;-74
2021/05/30 01:41:43;;;;;;;15.90;13.00;;;;;;;;;;5091927;28;20537;-74
2021/05/30 01:44:10;;;;;;;17.90;13.70;;;;;;;;;;5091088;28;20197;-74
2021/05/30 01:46:37;;;;;;;16.33;12.43;;;;;;;;;;5083456;28;20293;-74
2021/05/30 01:49:03;;;;;;;14.07;12.10;;;;;;;;;;5075179;28;20297;-74
2021/05/30 01:51:30;;;;;;;16.17;12.03;;;;;;;;;;5091883;28;20658;-74
2021/05/30 01:54:05;;;;;;;14.60;13.00;;;;;;;;;;5090922;28;20202;-74
2021/05/30 01:59:19;;;;;;;18.37;12.30;;;;;;;;;;5087063;28;20790;-74
2021/05/30 02:01:46;;;;;;;15.33;12.90;;;;;;;;;;5091513;28;20622;-74
2021/05/30 02:04:14;;;;;;;15.37;11.83;;;;;;;;;;5090804;28;20277;-74
2021/05/30 02:06:42;;;;;;;13.97;12.43;;;;;;;;;;5091650;28;20297;-74
2021/05/30 02:09:09;;;;;;;16.17;12.23;;;;;;;;;;5091962;28;20202;-74
2021/05/30 02:11:35;;;;;;;16.37;12.47;;;;;;;;;;5092251;28;20288;-74
2021/05/30 02:14:02;;;;;;;14.70;12.73;;;;;;;;;;5090208;28;20353;-74
2021/05/30 02:16:30;;;;;;;14.57;12.17;;;;;;;;;;5090775;28;20286;-74
2021/05/30 02:18:57;;;;;;;14.33;11.77;;;;;;;;;;5091135;28;20226;-74
2021/05/30 02:21:24;;;;;;;14.07;11.43;;;;;;;;;;5090883;28;20761;-74
2021/05/30 02:23:51;;;;;;;14.27;11.80;;;;;;;;;;5090721;28;20202;-74
2021/05/30 02:26:18;;;;;;;13.00;10.83;;;;;;;;;;5091524;28;20289;-76
2021/05/30 02:28:44;;;;;;;13.00;11.30;;;;;;;;;;5091502;28;20582;-74
2021/05/30 02:31:11;;;;;;;13.37;10.97;;;;;;;;;;5090553;28;20306;-74
2021/05/30 02:33:39;;;;;;;12.87;11.13;;;;;;;;;;5091061;28;20657;-74
2021/05/30 02:36:07;;;;;;;12.27;10.97;;;;;;;;;;5091008;28;20230;-74
2021/05/30 02:38:33;;;;;;;13.07;11.10;;;;;;;;;;5091308;28;20325;-74
2021/05/30 02:41:00;;;;;;;12.93;10.93;;;;;;;;;;5091642;28;20229;-73
2021/05/30 02:43:27;;;;;;;11.20;10.00;;;;;;;;;;5091675;28;20281;-73
2021/05/30 02:45:53;;;;;;;13.97;10.10;;;;;;;;;;5091219;28;20212;-74
2021/05/30 02:48:20;;;;;;;11.90;10.50;;;;;;;;;;5090772;28;20293;-74
2021/05/30 02:50:58;;;;;;;15.83;10.40;;;;;;;;;;5091276;28;20293;-74
2021/05/30 02:53:25;;;;;;;12.17;10.60;;;;;;;;;;5091455;28;20255;-74
2021/05/30 02:55:52;;;;;;;11.33;9.53;;;;;;;;;;5090945;28;20226;-74
2021/05/30 02:58:18;;;;;;;13.03;9.17;;;;;;;;;;5091070;28;20286;-74
2021/05/30 03:00:45;;;;;;;12.90;10.13;;;;;;;;;;5091120;28;20301;-74
2021/05/30 03:03:13;;;;;;;11.40;9.10;;;;;;;;;;5091026;28;20289;-73
2021/05/30 03:05:40;;;;;;;10.83;9.67;;;;;;;;;;5090753;28;20313;-73
2021/05/30 03:08:07;;;;;;;10.10;9.10;;;;;;;;;;5090897;28;20289;-74
2021/05/30 03:10:34;;;;;;;11.40;9.50;;;;;;;;;;5091340;28;20281;-74
2021/05/30 03:13:01;;;;;;;10.87;9.30;;;;;;;;;;5090705;28;20694;-73
2021/05/30 03:15:28;;;;;;;10.53;8.70;;;;;;;;;;5092718;28;20230;-73
2021/05/30 03:17:55;;;;;;;10.67;9.07;;;;;;;;;;5095346;28;20289;-73
2021/05/30 03:20:22;;;;;;;12.07;9.20;;;;;;;;;;5093928;28;20216;-73
2021/05/30 03:22:49;;;;;;;9.97;8.30;;;;;;;;;;5094563;28;20696;-74
2021/05/30 03:25:17;;;;;;;11.20;9.00;;;;;;;;;;5094762;28;20226;-74
2021/05/30 03:27:43;;;;;;;10.37;8.63;;;;;;;;;;5094863;28;20301;-74
2021/05/30 03:30:11;;;;;;;9.53;8.53;;;;;;;;;;5094949;28;20290;-73
2021/05/30 03:32:38;;;;;;;13.17;8.90;;;;;;;;;;5094282;28;20305;-74
2021/05/30 03:35:05;;;;;;;9.30;8.30;;;;;;;;;;5093192;28;20677;-74
2021/05/30 03:37:32;;;;;;;10.53;8.53;;;;;;;;;;5093974;28;20293;-74
2021/05/30 03:40:02;;;;;;;11.10;7.97;;;;;;;;;;5094751;28;20289;-73
2021/05/30 03:42:35;;;;;;;9.67;8.67;;;;;;;;;;5094461;28;20282;-73
2021/05/30 03:45:02;;;;;;;9.77;8.30;;;;;;;;;;5094595;28;20217;-74
2021/05/30 03:47:29;;;;;;;9.67;8.00;;;;;;;;;;5094528;28;20234;-74
2021/05/30 03:49:56;;;;;;;8.70;7.80;;;;;;;;;;5094354;28;20626;-74
2021/05/30 03:52:23;;;;;;;8.57;7.23;;;;;;;;;;5093241;28;20310;-73
2021/05/30 03:54:49;;;;;;;9.07;7.83;;;;;;;;;;5086693;28;20226;-74
2021/05/30 03:57:16;;;;;;;9.47;7.60;;;;;;;;;;5093558;28;20403;-74
2021/05/30 03:59:44;;;;;;;8.07;7.27;;;;;;;;;;5093819;28;20248;-73
2021/05/30 04:02:11;;;;;;;8.00;7.13;;;;;;;;;;5093516;28;20254;-74
2021/05/30 04:04:37;;;;;;;10.83;7.57;;;;;;;;;;5093182;28;20297;-74
2021/05/30 04:07:04;;;;;;;9.10;7.63;;;;;;;;;;5094094;28;20293;-74
2021/05/30 04:09:31;;;;;;;9.03;7.77;;;;;;;;;;5083766;28;20195;-74
2021/05/30 04:11:59;;;;;;;8.97;7.40;;;;;;;;;;5082159;28;20222;-73
2021/05/30 04:14:25;;;;;;;9.13;7.77;;;;;;;;;;5093237;28;20680;-75
2021/05/30 04:16:53;;;;;;;7.87;7.03;;;;;;;;;;5093735;28;20230;-76
2021/05/30 04:19:20;;;;;;;8.33;7.50;;;;;;;;;;5094059;28;20285;-75
2021/05/30 04:21:47;;;;;;;8.00;7.20;;;;;;;;;;5093663;28;20251;-75
2021/05/30 04:24:14;;;;;;;7.43;6.73;;;;;;;;;;5091500;28;20243;-74
2021/05/30 04:26:40;;;;;;;10.30;7.10;;;;;;;;;;5087451;28;20333;-75
2021/05/30 04:29:07;;;;;;;7.67;6.87;;;;;;;;;;5093404;28;20344;-75
2021/05/30 04:31:34;;;;;;;9.57;7.73;;;;;;;;;;5089934;28;20240;-75
2021/05/30 04:34:02;;;;;;;8.70;7.07;;;;;;;;;;5078713;28;20215;-75
2021/05/30 04:36:29;;;;;;;7.97;7.17;;;;;;;;;;5093604;28;20610;-75
2021/05/30 04:38:56;;;;;;;7.87;7.07;;;;;;;;;;5093218;28;20313;-75
2021/05/30 04:41:22;;;;;;;8.97;7.23;;;;;;;;;;5090266;28;20234;-74
2021/05/30 04:43:49;;;;;;;8.23;7.43;;;;;;;;;;5075695;28;20749;-75
2021/05/30 04:46:16;;;;;;;7.87;6.87;;;;;;;;;;5088577;28;20237;-75
2021/05/30 04:48:42;;;;;;;8.47;6.60;;;;;;;;;;5072391;28;20235;-75
2021/05/30 04:51:13;;;;;;;7.80;7.07;;;;;;;;;;5072430;28;20314;-75
2021/05/30 04:53:40;;;;;;;8.37;6.93;;;;;;;;;;5073106;28;20256;-75
2021/05/30 04:56:07;;;;;;;8.13;6.57;;;;;;;;;;5088568;28;20673;-75
2021/05/30 04:58:34;;;;;;;8.83;7.17;;;;;;;;;;5073550;28;20279;-74
2021/05/30 05:01:02;;;;;;;7.03;6.30;;;;;;;;;;5089109;28;20203;-75
2021/05/30 05:03:29;;;;;;;6.63;5.93;;;;;;;;;;5092473;28;20194;-75
2021/05/30 05:05:56;;;;;;;9.23;6.70;;;;;;;;;;5077270;28;20282;-75
2021/05/30 05:08:23;;;;;;;8.10;6.53;;;;;;;;;;5072430;28;20203;-75
2021/05/30 05:10:51;;;;;;;8.43;6.63;;;;;;;;;;5086621;28;20356;-75
2021/05/30 05:13:18;;;;;;;7.33;6.50;;;;;;;;;;5092631;28;20226;-74
2021/05/30 05:15:45;;;;;;;7.40;6.60;;;;;;;;;;5091238;28;20285;-74
2021/05/30 05:18:13;;;;;;;6.77;6.07;;;;;;;;;;5092402;28;20677;-75
2021/05/30 05:20:40;;;;;;;6.83;6.13;;;;;;;;;;5091732;28;20678;-74
2021/05/30 05:23:07;;;;;;;8.00;6.27;;;;;;;;;;5091537;28;20201;-75
2021/05/30 05:25:36;;;;;;;7.47;6.67;;;;;;;;;;5092157;28;20206;-74
2021/05/30 05:28:03;;;;;;;7.13;6.17;;;;;;;;;;5092670;28;20752;-74
2021/05/30 05:30:31;;;;;;;7.60;6.23;;;;;;;;;;5091987;28;20241;-75
2021/05/30 05:32:59;;;;;;;8.67;5.67;;;;;;;;;;5087136;28;20318;-75
2021/05/30 05:35:25;;;;;;;6.37;5.77;;;;;;;;;;5071587;28;20225;-75
2021/05/30 05:37:54;;;;;;;6.60;5.93;;;;;;;;;;5083173;28;20341;-75
2021/05/30 05:40:20;;;;;;;6.23;5.63;;;;;;;;;;5063688;28;20673;-75
2021/05/30 05:42:48;;;;;;;6.63;5.73;;;;;;;;;;5054210;28;20902;-75
2021/05/30 05:45:15;;;;;;;7.30;5.73;;;;;;;;;;5053907;28;20317;-74
2021/05/30 05:47:43;;;;;;;5.93;5.33;;;;;;;;;;5073619;28;20195;-75
2021/05/30 05:50:11;;;;;;;5.87;5.37;;;;;;;;;;5072786;28;20202;-75
2021/05/30 05:52:38;;;;;;;6.50;5.47;;;;;;;;;;5071559;28;20226;-74
2021/05/30 05:55:05;;;;;;;7.07;5.40;;;;;;;;;;5084988;28;20211;-74
2021/05/30 05:57:32;;;;;;;5.70;5.20;;;;;;;;;;5073969;28;20234;-74
2021/05/30 06:00:00;;;;;;;6.23;5.63;;;;;;;;;;5090278;28;20681;-74
2021/05/30 06:02:27;;;;;;;6.40;5.70;;;;;;;;;;5092157;28;20240;-75
2021/05/30 06:04:53;;;;;;;6.37;5.37;;;;;;;;;;5091694;28;20201;-75
2021/05/30 06:07:20;;;;;;;6.23;5.63;;;;;;;;;;5092070;28;20297;-74
2021/05/30 06:09:47;;;;;;;6.40;5.20;;;;;;;;;;5091785;28;20236;-75
2021/05/30 06:12:14;;;;;;;5.87;5.13;;;;;;;;;;5091394;28;20612;-75
2021/05/30 06:14:41;;;;;;;5.43;4.93;;;;;;;;;;5091377;28;20626;-75
2021/05/30 06:17:10;;;;;;;6.40;5.70;;;;;;;;;;5092037;28;20290;-75
2021/05/30 06:19:37;;;;;;;5.73;5.10;;;;;;;;;;5091139;28;20195;-75
2021/05/30 06:22:04;;;;;;;5.33;4.83;;;;;;;;;;5090516;28;20352;-75
2021/05/30 06:24:31;;;;;;;6.80;5.53;;;;;;;;;;5088243;28;20405;-74
2021/05/30 06:26:59;;;;;;;5.80;5.20;;;;;;;;;;5078253;28;20249;-74
2021/05/30 06:29:25;;;;;;;5.83;5.30;;;;;;;;;;5083467;28;20283;-74
2021/05/30 06:31:52;;;;;;;5.70;5.20;;;;;;;;;;5067373;28;20352;-75
2021/05/30 06:34:20;;;;;;;6.57;5.63;;;;;;;;;;5077154;28;20207;-75
2021/05/30 06:36:49;;;;;;;6.43;5.40;;;;;;;;;;5071043;28;20290;-75
2021/05/30 06:39:16;;;;;;;6.20;5.67;;;;;;;;;;5072792;28;20231;-75
2021/05/30 06:41:43;;;;;;;6.27;5.67;;;;;;;;;;5088025;28;20229;-75
2021/05/30 06:44:10;;;;;;;7.90;5.80;;;;;;;;;;5087765;28;20234;-75
2021/05/30 06:46:38;;;;;;;6.07;5.53;;;;;;;;;;5071309;28;20286;-74
2021/05/30 06:49:05;;;;;;;7.13;5.90;;;;;;;;;;5075682;28;20286;-74
2021/05/30 06:51:32;;;;;;;6.17;5.57;;;;;;;;;;5083062;28;20313;-74
2021/05/30 06:54:00;;;;;;;6.13;5.50;;;;;;;;;;5087469;28;20334;-75
2021/05/30 06:56:27;;;;;;;7.03;5.60;;;;;;;;;;5094706;28;20230;-75
2021/05/30 06:58:54;;;;;;;6.10;5.50;;;;;;;;;;5095685;28;20285;-74
2021/05/30 07:01:21;;;;;;;6.20;5.60;;;;;;;;;;5093205;28;20225;-75
2021/05/30 07:03:48;;;;;;;5.87;5.27;;;;;;;;;;5095539;28;20588;-75
2021/05/30 07:06:15;;;;;;;5.63;5.13;;;;;;;;;;5089308;28;20198;-75
2021/05/30 07:08:43;;;;;;;5.97;5.47;;;;;;;;;;5094604;28;20308;-75
2021/05/30 07:11:10;;;;;;;6.70;5.30;;;;;;;;;;5080055;28;20238;-75
2021/05/30 07:13:37;;;;;;;5.97;5.37;;;;;;;;;;5090651;28;20205;-75
2021/05/30 07:16:04;;;;;;;5.73;5.23;;;;;;;;;;5080890;28;20209;-75
2021/05/30 07:18:31;;;;;;;5.47;4.97;;;;;;;;;;5074872;28;20734;-75
2021/05/30 07:20:58;;;;;;;6.07;5.13;;;;;;;;;;5082445;28;20198;-75
2021/05/30 07:23:24;;;;;;;6.13;4.90;;;;;;;;;;5093858;28;20297;-75
2021/05/30 07:25:52;;;;;;;6.13;4.70;;;;;;;;;;5089920;28;20271;-75
2021/05/30 07:28:19;;;;;;;6.87;5.17;;;;;;;;;;5089169;28;20230;-74
2021/05/30 07:30:47;;;;;;;8.07;5.27;;;;;;;;;;5090390;28;20218;-74
2021/05/30 07:33:13;;;;;;;5.50;5.00;;;;;;;;;;5084229;28;20313;-75
2021/05/30 07:35:40;;;;;;;5.10;4.60;;;;;;;;;;5091187;28;20676;-75
2021/05/30 07:38:07;;;;;;;5.53;4.97;;;;;;;;;;5085992;28;20678;-75
2021/05/30 07:40:33;;;;;;;5.40;4.93;;;;;;;;;;5089670;28;20233;-75
2021/05/30 07:43:01;;;;;;;5.47;4.93;;;;;;;;;;5097700;28;20309;-75
2021/05/30 07:45:31;;;;;;;6.35;4.80;;;;;;;;;;5090755;28;20199;-74
2021/05/30 07:47:58;;;;;;;8.18;4.65;;;;;;;;;;5093337;28;20265;-75
2021/05/30 07:50:25;;;;;;;5.10;4.60;;;;;;;;;;5091454;28;20194;-74
2021/05/30 07:52:52;;;;;;;4.50;3.83;;;;;;;;;;5090309;28;21079;-74
2021/05/30 07:55:19;;;;;;;5.32;4.82;;;;;;;;;;5093294;28;20229;-74
2021/05/30 07:57:49;;;;;;;4.57;4.18;;;;;;;;;;5091783;28;20290;-75
2021/05/30 08:00:18;;;;;;;4.85;4.45;;;;;;;;;;5086438;28;20640;-75
2021/05/30 08:02:45;;;;;;;4.47;3.97;;;;;;;;;;5079423;28;20223;-75
2021/05/30 08:05:16;;;;;;;5.70;4.30;;;;;;;;;;5073925;28;20293;-75
2021/05/30 08:07:43;;;;;;;4.97;4.50;;;;;;;;;;5089706;28;20202;-74
2021/05/30 08:10:10;;;;;;;4.93;4.18;;;;;;;;;;5092726;28;20191;-75
2021/05/30 08:12:37;;;;;;;4.78;4.28;;;;;;;;;;5092387;28;20305;-75
2021/05/30 08:15:04;;;;;;;4.53;4.13;;;;;;;;;;5080347;28;20237;-75
2021/05/30 08:17:34;;;;;;;4.78;4.35;;;;;;;;;;5092009;28;20549;-75
2021/05/30 08:20:01;;;;;;;4.53;4.13;;;;;;;;;;5093239;28;20281;-75
2021/05/30 08:22:28;;;;;;;4.40;4.00;;;;;;;;;;5087437;28;20215;-75
2021/05/30 08:24:55;;;;;;;6.55;4.50;;;;;;;;;;5074482;28;20231;-75
2021/05/30 08:27:22;;;;;;;4.63;4.22;;;;;;;;;;5087355;28;20281;-74
2021/05/30 08:29:48;;;;;;;4.57;4.22;;;;;;;;;;5076165;28;20237;-76
2021/05/30 08:32:15;;;;;;;4.72;4.03;;;;;;;;;;5086430;28;20333;-75
2021/05/30 08:34:45;;;;;;;5.22;4.28;;;;;;;;;;5074061;28;20203;-75
2021/05/30 08:37:11;;;;;;;4.65;4.25;;;;;;;;;;5083821;28;20255;-75
2021/05/30 08:39:38;;;;;;;5.40;4.60;;;;;;;;;;5081389;28;20749;-76
2021/05/30 08:42:05;;;;;;;4.70;4.20;;;;;;;;;;5085941;28;20515;-77
2021/05/30 08:44:32;;;;;;;4.30;3.90;;;;;;;;;;5087754;28;20289;-75
2021/05/30 08:46:59;;;;;;;4.60;4.05;;;;;;;;;;5081450;28;20608;-76
2021/05/30 08:49:25;;;;;;;4.40;3.78;;;;;;;;;;5089288;28;20227;-75
2021/05/30 08:51:53;;;;;;;3.70;3.40;;;;;;;;;;5077662;28;20706;-76
2021/05/30 08:54:20;;;;;;;4.40;3.40;;;;;;;;;;5079795;28;20299;-78
2021/05/30 08:56:48;;;;;;;5.13;3.80;;;;;;;;;;5083249;28;20225;-78
2021/05/30 08:59:27;;;;;;;4.03;3.70;;;;;;;;;;5089161;28;20241;-76
2021/05/30 09:01:54;;;;;;;4.50;3.92;;;;;;;;;;5082129;28;20734;-76
2021/05/30 09:04:29;;;;;;;4.10;3.67;;;;;;;;;;5078112;28;20217;-77
2021/05/30 09:06:57;;;;;;;5.40;3.60;;;;;;;;;;5083328;28;20301;-77
2021/05/30 09:09:24;;;;;;;6.32;3.80;;;;;;;;;;5086685;28;20225;-77
2021/05/30 09:11:51;;;;;;;4.00;3.70;;;;;;;;;;5074007;28;20268;-77
2021/05/30 09:14:21;;;;;;;3.53;3.20;;;;;;;;;;5074409;28;20290;-77
2021/05/30 09:16:49;;;;;;;5.35;3.53;;;;;;;;;;5085774;28;20202;-75
2021/05/30 09:19:29;;;;;;;3.83;3.30;;;;;;;;;;5075880;28;20286;-79
2021/05/30 09:22:14;;;;;;;4.13;3.40;;;;;;;;;;5085718;28;20618;-78
2021/05/30 09:24:40;;;;;;;3.67;3.38;;;;;;;;;;5088264;28;20870;-79
2021/05/30 09:27:10;;;;;;;4.43;3.38;;;;;;;;;;5089166;28;20255;-78
2021/05/30 09:29:37;;;;;;;3.50;3.20;;;;;;;;;;5089954;28;20293;-79
2021/05/30 09:32:04;;;;;;;4.30;3.47;;;;;;;;;;5085347;28;20306;-78
2021/05/30 09:34:32;;;;;;;3.83;3.40;;;;;;;;;;5081610;28;20218;-79
2021/05/30 09:37:01;;;;;;;3.80;3.50;;;;;;;;;;5084889;28;20210;-78
2021/05/30 09:39:34;;;;;;;4.07;3.03;;;;;;;;;;5090896;28;20733;-79
2021/05/30 09:42:16;;;;;;;4.95;4.03;;;;;;;;;;5079300;28;20210;-78
2021/05/30 09:44:54;;;;;;;4.57;3.53;;;;;;;;;;5086959;28;20229;-79
2021/05/30 09:47:33;;;;;;;4.15;3.22;;;;;;;;;;5090453;28;20273;-80
2021/05/30 09:49:59;;;;;;;4.07;3.53;;;;;;;;;;5085301;28;20312;-78
2021/05/30 09:52:38;;;;;;;4.32;3.00;;;;;;;;;;5077336;28;20258;-79
2021/05/30 09:55:14;;;;;;;3.42;2.97;;;;;;;;;;5071954;28;20234;-78
2021/05/30 09:57:41;;;;;;;3.33;3.03;;;;;;;;;;5085292;28;20281;-78
2021/05/30 10:00:20;;;;;;;3.78;3.40;;;;;;;;;;5085326;28;20626;-78
2021/05/30 10:02:47;;;;;;;4.18;3.78;;;;;;;;;;5085345;28;20218;-78
2021/05/30 10:05:14;;;;;;;4.88;3.75;;;;;;;;;;5079231;28;20199;-78
2021/05/30 10:07:42;;;;;;;3.58;3.10;;;;;;;;;;5079324;28;20285;-78
2021/05/30 10:10:09;;;;;;;2.63;2.40;;;;;;;;;;5079877;28;20283;-76
2021/05/30 10:12:36;;;;;;;3.65;3.35;;;;;;;;;;5079504;28;20655;-79
2021/05/30 10:15:03;;;;;;;4.63;3.97;;;;;;;;;;5082792;28;20332;-79
2021/05/30 10:17:31;;;;;;;3.53;3.15;;;;;;;;;;5082097;28;20233;-78
2021/05/30 10:20:00;;;;;;;3.85;2.50;;;;;;;;;;5085901;28;20728;-78
2021/05/30 10:22:27;;;;;;;3.28;2.40;;;;;;;;;;5077808;28;20647;-76
2021/05/30 10:24:56;;;;;;;3.65;2.40;;;;;;;;;;5086653;28;20268;-78
2021/05/30 10:27:24;;;;;;;4.63;2.20;;;;;;;;;;5085721;28;20275;-78
2021/05/30 10:30:24;;;;;;;3.72;2.10;;;;;;;;;;5080128;28;20195;-78
2021/05/30 10:33:08;;;;;;;2.33;2.10;;;;;;;;;;5032162;28;20311;-78
2021/05/30 10:35:35;;;;;;;2.65;2.38;;;;;;;;;;5040167;28;20202;-77
2021/05/30 10:38:02;;;;;;;2.63;2.42;;;;;;;;;;5035679;28;20227;-79
2021/05/30 10:40:35;;;;;;;2.30;2.10;;;;;;;;;;5030798;28;20289;-79
2021/05/30 10:43:17;;;;;;;2.97;2.25;;;;;;;;;;5029557;28;20200;-80
2021/05/30 10:45:57;;;;;;;2.90;2.60;;;;;;;;;;5041281;28;20192;-79
2021/05/30 10:48:24;;;;;;;3.05;2.40;;;;;;;;;;5039987;28;20286;-80
2021/05/30 10:50:55;;;;;;;2.90;2.15;;;;;;;;;;5036890;28;20278;-80
2021/05/30 10:53:32;;;;;;;2.17;2.03;;;;;;;;;;5045335;28;20224;-80
2021/05/30 10:56:23;;;;;;;2.80;2.58;;;;;;;;;;5040762;28;20289;-77
2021/05/30 10:59:08;;;;;;;2.65;2.00;;;;;;;;;;5043541;28;20199;-78
2021/05/30 11:01:43;;;;;;;2.28;2.08;;;;;;;;;;5041511;28;20199;-80
2021/05/30 11:04:43;;;;;;;2.40;1.90;;;;;;;;;;5077221;28;20281;-78
2021/05/30 11:07:25;;;;;;;2.55;1.80;;;;;;;;;;5047154;28;20299;-79
2021/05/30 11:10:14;;;;;;;3.53;1.92;;;;;;;;;;5039256;28;20242;-79
2021/05/30 11:12:54;;;;;;;2.50;1.70;;;;;;;;;;5028913;28;20228;-79
2021/05/30 11:15:37;;;;;;;1.95;1.75;;;;;;;;;;5044709;28;20273;-77
2021/05/30 11:18:04;;;;;;;2.88;2.25;;;;;;;;;;5045443;28;20204;-78
2021/05/30 11:20:38;;;;;;;2.47;2.03;;;;;;;;;;5036612;28;20207;-79
2021/05/30 11:23:06;;;;;;;3.70;1.60;;;;;;;;;;5036922;28;20234;-78
2021/05/30 11:25:34;;;;;;;2.60;1.80;;;;;;;;;;5034065;28;20282;-79
2021/05/30 11:28:02;;;;;;;2.15;1.50;;;;;;;;;;5040402;28;20671;-78
2021/05/30 11:30:50;;;;;;;4.35;3.55;;;;;;;;;;5036476;28;20287;-78
2021/05/30 11:33:27;;;;;;;4.18;3.22;;;;;;;;;;5025933;28;20266;-80
2021/05/30 11:35:54;;;;;;;7.50;6.78;;;;;;;;;;5032464;28;20196;-81
2021/05/30 11:38:32;;;;;;;3.40;2.92;;;;;;;;;;5067315;28;20321;-81
2021/05/30 11:41:08;;;;;;;2.22;2.03;;;;;;;;;;5083128;28;20615;-81
2021/05/30 11:43:35;;;;;;;3.20;2.90;;;;;;;;;;5079048;28;20750;-81
2021/05/30 11:46:10;;;;;;;4.53;3.13;;;;;;;;;;5078227;28;20286;-81
2021/05/30 11:48:37;;;;;;;7.45;4.05;;;;;;;;;;5086107;28;20248;-80
2021/05/30 11:51:04;;;;;;;3.05;2.30;;;;;;;;;;5082795;28;20222;-81
2021/05/30 11:53:33;;;;;;;2.60;2.40;;;;;;;;;;5081881;28;20714;-80
2021/05/30 11:56:00;;;;;;;2.65;2.38;;;;;;;;;;5081675;28;20681;-81
2021/05/30 11:58:27;;;;;;;2.45;2.25;;;;;;;;;;5088202;28;20294;-81
2021/05/30 12:00:58;;;;;;;4.70;2.92;;;;;;;;;;5083652;28;20757;-81
2021/05/30 12:03:25;;;;;;;2.10;1.92;;;;;;;;;;5087362;28;20274;-79
2021/05/30 12:05:58;;;;;;;2.28;1.80;;;;;;;;;;5076819;28;20226;-79
2021/05/30 12:08:25;;;;;;;2.17;1.70;;;28.40;83.30;;;;;;5081748;28;20741;-80
2021/05/30 12:10:54;;;;;;;2.67;1.83;;;28.30;81.20;;;;;;5085695;28;20202;-80
2021/05/30 12:13:32;;;;;;;1.77;1.67;;;28.00;85.00;;;;;;5093796;28;20276;-80
2021/05/30 12:16:13;;;;;;;1.50;1.40;;;27.50;83.50;;;;;;5080467;28;20697;-79
2021/05/30 12:18:50;;;;;;;1.83;1.73;;;29.00;82.90;;;;;;5074729;28;20210;-81
2021/05/30 12:21:17;;;;;;;2.85;2.00;;;28.20;85.80;;;;;;5089339;28;20302;-80
2021/05/30 12:23:43;;;;;;;2.50;2.30;;;28.60;90.40;;;;;;5086450;28;20690;-81
2021/05/30 12:26:12;;;;;;;2.50;2.30;;;29.30;84.40;;;;;;5079260;28;20292;-79
2021/05/30 12:28:40;;;;;;;2.50;2.28;;;29.50;88.00;;;;;;5088190;28;20261;-79
2021/05/30 12:31:10;;;;;;;2.38;2.10;;;27.20;83.60;;;;;;5092017;28;20281;-79
2021/05/30 12:33:55;;;;;;;2.03;1.70;;;26.00;89.70;;;;;;5093628;28;20731;-80
2021/05/30 12:36:33;;;;;;;2.10;1.90;;;26.90;89.90;;;;;;5093883;28;20235;-80
2021/05/30 12:39:05;;;;;;;2.15;1.63;;;27.60;83.20;;;;;;5083436;28;20322;-80
2021/05/30 12:41:33;;;;;;;2.50;1.88;;;27.20;89.80;;;;;;5084754;28;20229;-80
2021/05/30 12:44:09;;;;;;;2.40;1.90;;;27.20;90.50;;;;;;5091977;28;20344;-80
2021/05/30 12:46:37;;;;;;;4.00;1.95;;;28.40;88.00;;;;;;5080620;28;20194;-79
2021/05/30 12:49:11;;;;;;;1.83;1.70;;;28.60;84.60;;;;;;5086087;28;20285;-80
2021/05/30 12:51:38;;;;;;;2.40;1.70;;;29.10;79.70;;;;;;5081641;28;20278;-78
2021/05/30 12:54:18;;;;;;;1.90;1.70;;;28.70;80.30;;;;;;5080702;28;20244;-79
2021/05/30 12:56:49;;;;;;;1.98;1.73;;;27.30;87.90;;;;;;5087486;28;20227;-79
2021/05/30 12:59:17;;;;;;;2.72;2.00;;;28.10;85.20;;;;;;5086142;28;20202;-79
2021/05/30 13:01:46;;;;;;;2.35;2.10;;;27.40;88.10;;;;;;5084830;28;20272;-79
2021/05/30 13:04:21;;;;;;;1.98;1.75;;;27.70;85.60;;;;;;5086870;28;20760;-80
2021/05/30 13:06:58;;;;;;;1.70;1.60;;;26.60;88.50;;;;;;5080202;28;20281;-79
2021/05/30 13:09:26;;;;;;;2.05;1.80;;;27.70;88.00;;;;;;5073157;28;20195;-81
2021/05/30 13:11:53;;;;;;;2.25;2.00;;;27.80;82.30;;;;;;5087499;28;20205;-79
2021/05/30 13:14:30;;;;;;;3.15;1.70;;;27.70;84.80;;;;;;5084136;28;20327;-79
2021/05/30 13:17:16;;;;;;;2.58;1.52;;;28.80;84.90;;;;;;5082683;28;20210;-80
2021/05/30 13:20:22;;;;;;;2.35;1.60;;;28.40;76.70;;;;;;5091965;28;20209;-80
2021/05/30 13:22:57;;;;;;;1.80;1.70;;;29.30;77.40;;;;;;5003625;28;20651;-80
2021/05/30 13:25:27;;;;;;;1.48;1.38;;;26.80;78.40;;;;;;5001872;28;20224;-79
2021/05/30 13:28:08;;;;;;;1.65;1.55;;;26.50;84.80;;;;;;4997695;28;20218;-81
2021/05/30 13:30:35;;;;;;;1.63;1.52;;;25.80;86.40;;;;;;4997779;28;20259;-80
2021/05/30 13:33:02;;;;;;;1.98;1.63;;;26.70;85.50;;;;;;5006293;28;20315;-80
2021/05/30 13:35:28;;;;;;;1.70;1.60;;;26.60;85.10;;;;;;5001642;28;20292;-80
2021/05/30 13:37:55;;;;;;;2.22;1.83;;;27.90;78.40;;;;;;5006707;28;20780;-81
2021/05/30 13:40:21;;;;;;;2.20;1.58;;;27.10;85.30;;;;;;5007949;28;20283;-80
2021/05/30 13:42:48;;;;;;;1.80;1.60;;;26.00;81.90;;;;;;5000497;28;20280;-80
2021/05/30 13:45:15;;;;;;;1.70;1.60;;;25.30;84.90;;;;;;5000268;28;20289;-80
2021/05/30 13:47:42;;;;;;;1.85;1.67;;;26.20;82.30;;;;;;4998071;28;20209;-80
2021/05/30 13:50:11;;;;;;;1.90;1.52;;;27.30;79.80;;;;;;5001196;28;20284;-80
2021/05/30 13:52:37;;;;;;;1.60;1.50;;;27.90;76.70;;;;;;5018759;28;20654;-80
2021/05/30 13:55:04;;;;;;;1.52;1.42;;;27.50;78.60;;;;;;5092683;28;20248;-80
2021/05/30 13:57:31;;;;;;;2.55;1.70;;;26.50;82.00;;;;;;5071282;28;20257;-81
2021/05/30 13:59:57;;;;;;;1.77;1.60;;;27.10;77.00;;;;;;5071881;28;20743;-79
2021/05/30 14:02:26;;;;;;;1.73;1.60;;;26.60;79.70;;;;;;5071934;28;20282;-80
2021/05/30 14:04:53;;;;;;;1.92;1.75;;;28.00;80.50;;;;;;5079952;28;20225;-81
2021/05/30 14:07:21;;;;;;;1.98;1.40;;;28.90;76.20;;;;;;5088313;28;20202;-81
2021/05/30 14:09:47;;;;;;;2.03;1.70;;;28.50;78.90;;;;;;5092334;28;20897;-81
2021/05/30 14:12:13;;;;;;;1.63;1.50;;;27.10;85.70;;;;;;5090750;28;20257;-79
2021/05/30 14:14:41;;;;;;;2.85;1.52;;;26.00;81.40;;;;;;5090250;28;20226;-79
2021/05/30 14:17:07;;;;;;;2.38;1.58;;;24.80;84.70;;;;;;5092187;28;20289;-80
2021/05/30 14:19:34;;;;;;;1.70;1.60;;;25.70;85.90;;;;;;5075822;28;20655;-80
2021/05/30 14:22:00;;;;;;;1.55;1.35;;;27.70;82.90;;;;;;5071461;28;20285;-80
2021/05/30 14:24:28;;;;;;;1.85;1.55;;;27.70;76.10;;;;;;5073933;28;20223;-80
2021/05/30 14:26:55;;;;;;;3.42;1.70;;;27.20;76.90;;;;;;5081075;28;20734;-79
2021/05/30 14:29:21;;;;;;;1.90;1.60;;;25.70;78.90;;;;;;5083404;28;20305;-78